sensor_id;sensor_type;location;lat;lon;timestamp;pressure;altitude;pressure_sealevel;temperature;humidity
22550;BME280;11441;57.164;-2.120;2023-07-20T00:02:42;100933.94;;;13.57;100.00
22550;BME280;11441;57.164;-2.120;2023-07-20T00:05:09;100932.06;;;13.42;100.00
22550;BME280;11441;57.164;-2.120;2023-07-20T00:07:36;100927.44;;;13.49;100.00
22550;BME280;11441;57.164;-2.120;2023-07-20T00:10:03;100923.78;;;13.42;100.00
22550;BME280;11441;57.164;-2.120;2023-07-20T00:12:30;100933.53;;;13.35;100.00
22550;BME280;11441;57.164;-2.120;2023-07-20T00:14:57;100928.94;;;13.43;100.00
22550;BME280;11441;57.164;-2.120;2023-07-20T00:17:27;100932.06;;;13.42;100.00
22550;BME280;11441;57.164;-2.120;2023-07-20T00:19:54;100919.16;;;13.49;100.00
22550;BME280;11441;57.164;-2.120;2023-07-20T00:22:20;100933.53;;;13.35;100.00
22550;BME280;11441;57.164;-2.120;2023-07-20T00:24:47;100930.22;;;13.49;100.00
22550;BME280;11441;57.164;-2.120;2023-07-20T00:27:16;100928.44;;;13.37;100.00
22550;BME280;11441;57.164;-2.120;2023-07-20T00:29:43;100921.66;;;13.58;100.00
22550;BME280;11441;57.164;-2.120;2023-07-20T00:35:15;100923.09;;;13.48;100.00
22550;BME280;11441;57.164;-2.120;2023-07-20T00:37:41;100920.13;;;13.37;100.00
22550;BME280;11441;57.164;-2.120;2023-07-20T00:40:09;100914.44;;;13.30;100.00
22550;BME280;11441;57.164;-2.120;2023-07-20T00:42:35;100922.59;;;13.43;100.00
22550;BME280;11441;57.164;-2.120;2023-07-20T00:45:03;100919.09;;;13.46;100.00
22550;BME280;11441;57.164;-2.120;2023-07-20T00:47:30;100909.28;;;13.48;100.00
22550;BME280;11441;57.164;-2.120;2023-07-20T00:50:14;100917.22;;;13.50;100.00
22550;BME280;11441;57.164;-2.120;2023-07-20T00:52:41;100927.28;;;13.38;100.00
22550;BME280;11441;57.164;-2.120;2023-07-20T00:55:09;100917.06;;;13.43;100.00
22550;BME280;11441;57.164;-2.120;2023-07-20T00:57:36;100915.13;;;13.43;100.00
22550;BME280;11441;57.164;-2.120;2023-07-20T01:00:03;100917.75;;;13.36;100.00
22550;BME280;11441;57.164;-2.120;2023-07-20T01:02:30;100915.78;;;13.36;100.00
22550;BME280;11441;57.164;-2.120;2023-07-20T01:04:57;100921.31;;;13.36;100.00
22550;BME280;11441;57.164;-2.120;2023-07-20T01:07:40;100912.41;;;13.47;100.00
22550;BME280;11441;57.164;-2.120;2023-07-20T01:11:16;100913.09;;;13.40;100.00
22550;BME280;11441;57.164;-2.120;2023-07-20T01:13:09;100910.31;;;13.40;100.00
22550;BME280;11441;57.164;-2.120;2023-07-20T01:15:39;100919.44;;;13.21;100.00
22550;BME280;11441;57.164;-2.120;2023-07-20T01:18:06;100901.31;;;13.24;100.00
22550;BME280;11441;57.164;-2.120;2023-07-20T01:20:33;100916.25;;;13.19;100.00
22550;BME280;11441;57.164;-2.120;2023-07-20T01:26:40;100912.81;;;13.26;100.00
22550;BME280;11441;57.164;-2.120;2023-07-20T01:31:37;100912.06;;;13.29;100.00
22550;BME280;11441;57.164;-2.120;2023-07-20T01:34:08;100910.63;;;13.35;100.00
22550;BME280;11441;57.164;-2.120;2023-07-20T01:36:38;100915.28;;;13.31;100.00
22550;BME280;11441;57.164;-2.120;2023-07-20T01:39:06;100907.91;;;13.38;100.00
22550;BME280;11441;57.164;-2.120;2023-07-20T01:41:51;100914.44;;;13.30;100.00
22550;BME280;11441;57.164;-2.120;2023-07-20T01:44:19;100904.56;;;13.29;100.00
22550;BME280;11441;57.164;-2.120;2023-07-20T01:46:46;100909.91;;;13.18;100.00
22550;BME280;11441;57.164;-2.120;2023-07-20T01:49:13;100908.75;;;13.19;100.00
22550;BME280;11441;57.164;-2.120;2023-07-20T01:51:40;100898.41;;;13.16;100.00
22550;BME280;11441;57.164;-2.120;2023-07-20T01:54:07;100906.53;;;13.29;100.00
22550;BME280;11441;57.164;-2.120;2023-07-20T01:56:35;100908.97;;;13.11;100.00
22550;BME280;11441;57.164;-2.120;2023-07-20T01:59:02;100906.56;;;13.09;100.00
22550;BME280;11441;57.164;-2.120;2023-07-20T02:01:29;100898.56;;;13.04;100.00
22550;BME280;11441;57.164;-2.120;2023-07-20T02:03:56;100905.91;;;13.16;100.00
22550;BME280;11441;57.164;-2.120;2023-07-20T02:06:23;100900.81;;;13.18;100.00
22550;BME280;11441;57.164;-2.120;2023-07-20T02:08:50;100898.94;;;13.02;100.00
22550;BME280;11441;57.164;-2.120;2023-07-20T02:11:17;100898.47;;;13.20;100.00
22550;BME280;11441;57.164;-2.120;2023-07-20T02:13:44;100896.25;;;13.06;100.00
22550;BME280;11441;57.164;-2.120;2023-07-20T02:16:11;100897.44;;;13.05;100.00
22550;BME280;11441;57.164;-2.120;2023-07-20T02:18:38;100891.78;;;13.21;100.00
22550;BME280;11441;57.164;-2.120;2023-07-20T02:21:07;100894.28;;;13.07;100.00
22550;BME280;11441;57.164;-2.120;2023-07-20T02:23:33;100894.00;;;13.12;100.00
22550;BME280;11441;57.164;-2.120;2023-07-20T02:26:01;100885.94;;;13.03;100.00
22550;BME280;11441;57.164;-2.120;2023-07-20T02:28:28;100886.97;;;12.95;100.00
22550;BME280;11441;57.164;-2.120;2023-07-20T02:30:55;100889.38;;;12.96;100.00
22550;BME280;11441;57.164;-2.120;2023-07-20T02:33:22;100884.69;;;13.00;100.00
22550;BME280;11441;57.164;-2.120;2023-07-20T02:35:49;100889.91;;;13.06;100.00
22550;BME280;11441;57.164;-2.120;2023-07-20T02:38:17;100885.94;;;13.26;100.00
22550;BME280;11441;57.164;-2.120;2023-07-20T02:40:44;100883.84;;;13.19;100.00
22550;BME280;11441;57.164;-2.120;2023-07-20T02:43:11;100881.75;;;13.32;100.00
22550;BME280;11441;57.164;-2.120;2023-07-20T02:45:41;100883.91;;;13.23;100.00
22550;BME280;11441;57.164;-2.120;2023-07-20T02:48:09;100880.09;;;13.08;100.00
22550;BME280;11441;57.164;-2.120;2023-07-20T02:50:36;100890.34;;;13.08;100.00
22550;BME280;11441;57.164;-2.120;2023-07-20T02:53:03;100886.50;;;13.12;100.00
22550;BME280;11441;57.164;-2.120;2023-07-20T02:55:30;100893.56;;;13.10;100.00
22550;BME280;11441;57.164;-2.120;2023-07-20T02:57:57;100894.41;;;13.14;100.00
22550;BME280;11441;57.164;-2.120;2023-07-20T03:00:23;100892.44;;;13.14;100.00
22550;BME280;11441;57.164;-2.120;2023-07-20T03:02:51;100883.78;;;13.16;100.00
22550;BME280;11441;57.164;-2.120;2023-07-20T03:05:22;100887.03;;;12.98;100.00
22550;BME280;11441;57.164;-2.120;2023-07-20T03:07:52;100890.09;;;12.93;100.00
22550;BME280;11441;57.164;-2.120;2023-07-20T03:10:19;100886.72;;;13.04;100.00
22550;BME280;11441;57.164;-2.120;2023-07-20T03:12:46;100882.50;;;13.10;100.00
22550;BME280;11441;57.164;-2.120;2023-07-20T03:15:13;100893.69;;;13.17;100.00
22550;BME280;11441;57.164;-2.120;2023-07-20T03:17:40;100888.56;;;12.96;100.00
22550;BME280;11441;57.164;-2.120;2023-07-20T03:20:07;100884.19;;;12.95;100.00
22550;BME280;11441;57.164;-2.120;2023-07-20T03:22:36;100896.75;;;13.12;100.00
22550;BME280;11441;57.164;-2.120;2023-07-20T03:25:04;100882.56;;;13.13;100.00
22550;BME280;11441;57.164;-2.120;2023-07-20T03:27:31;100874.94;;;13.30;100.00
22550;BME280;11441;57.164;-2.120;2023-07-20T03:29:59;100879.63;;;13.26;100.00
22550;BME280;11441;57.164;-2.120;2023-07-20T03:32:26;100880.34;;;13.23;100.00
22550;BME280;11441;57.164;-2.120;2023-07-20T03:34:53;100882.00;;;13.04;100.00
22550;BME280;11441;57.164;-2.120;2023-07-20T03:37:20;100873.22;;;12.98;100.00
22550;BME280;11441;57.164;-2.120;2023-07-20T03:39:48;100868.16;;;12.81;100.00
22550;BME280;11441;57.164;-2.120;2023-07-20T03:42:15;100858.78;;;12.86;100.00
22550;BME280;11441;57.164;-2.120;2023-07-20T03:44:42;100879.16;;;13.00;100.00
22550;BME280;11441;57.164;-2.120;2023-07-20T03:47:09;100873.50;;;12.93;100.00
22550;BME280;11441;57.164;-2.120;2023-07-20T03:49:35;100880.94;;;12.89;100.00
22550;BME280;11441;57.164;-2.120;2023-07-20T03:52:02;100883.03;;;12.96;100.00
22550;BME280;11441;57.164;-2.120;2023-07-20T03:54:30;100881.72;;;12.90;100.00
22550;BME280;11441;57.164;-2.120;2023-07-20T03:56:56;100876.22;;;12.90;100.00
22550;BME280;11441;57.164;-2.120;2023-07-20T03:59:23;100869.66;;;12.98;100.00
22550;BME280;11441;57.164;-2.120;2023-07-20T04:01:50;100869.28;;;12.99;100.00
22550;BME280;11441;57.164;-2.120;2023-07-20T04:04:17;100872.72;;;12.93;100.00
22550;BME280;11441;57.164;-2.120;2023-07-20T04:06:44;100863.31;;;12.97;100.00
22550;BME280;11441;57.164;-2.120;2023-07-20T04:09:12;100868.47;;;12.99;100.00
22550;BME280;11441;57.164;-2.120;2023-07-20T04:11:39;100868.78;;;12.94;100.00
22550;BME280;11441;57.164;-2.120;2023-07-20T04:14:07;100877.22;;;12.81;100.00
22550;BME280;11441;57.164;-2.120;2023-07-20T04:16:34;100874.44;;;13.01;100.00
22550;BME280;11441;57.164;-2.120;2023-07-20T04:19:01;100870.56;;;13.06;100.00
22550;BME280;11441;57.164;-2.120;2023-07-20T04:21:28;100865.69;;;12.99;100.00
22550;BME280;11441;57.164;-2.120;2023-07-20T04:23:55;100879.16;;;13.00;100.00
22550;BME280;11441;57.164;-2.120;2023-07-20T04:26:23;100880.13;;;12.89;100.00
22550;BME280;11441;57.164;-2.120;2023-07-20T04:28:51;100879.03;;;12.93;100.00
22550;BME280;11441;57.164;-2.120;2023-07-20T04:31:33;100873.88;;;12.92;100.00
22550;BME280;11441;57.164;-2.120;2023-07-20T04:34:02;100873.06;;;12.91;100.00
22550;BME280;11441;57.164;-2.120;2023-07-20T04:36:29;100885.44;;;12.78;100.00
22550;BME280;11441;57.164;-2.120;2023-07-20T04:38:57;100877.59;;;12.80;100.00
22550;BME280;11441;57.164;-2.120;2023-07-20T04:41:23;100885.59;;;12.85;100.00
22550;BME280;11441;57.164;-2.120;2023-07-20T04:43:54;100882.25;;;12.76;100.00
22550;BME280;11441;57.164;-2.120;2023-07-20T04:46:27;100878.88;;;12.63;100.00
22550;BME280;11441;57.164;-2.120;2023-07-20T04:48:55;100894.28;;;12.44;100.00
22550;BME280;11441;57.164;-2.120;2023-07-20T04:51:23;100884.59;;;12.35;100.00
22550;BME280;11441;57.164;-2.120;2023-07-20T04:53:53;100876.00;;;12.40;100.00
22550;BME280;11441;57.164;-2.120;2023-07-20T04:56:20;100875.44;;;12.31;100.00
22550;BME280;11441;57.164;-2.120;2023-07-20T04:58:51;100859.22;;;12.10;100.00
22550;BME280;11441;57.164;-2.120;2023-07-20T05:01:18;100858.50;;;12.13;100.00
22550;BME280;11441;57.164;-2.120;2023-07-20T05:03:45;100868.91;;;12.19;100.00
22550;BME280;11441;57.164;-2.120;2023-07-20T05:06:13;100874.38;;;12.00;100.00
22550;BME280;11441;57.164;-2.120;2023-07-20T05:08:40;100877.31;;;12.07;100.00
22550;BME280;11441;57.164;-2.120;2023-07-20T05:11:07;100869.13;;;11.95;100.00
22550;BME280;11441;57.164;-2.120;2023-07-20T05:13:53;100872.81;;;12.18;100.00
22550;BME280;11441;57.164;-2.120;2023-07-20T05:16:20;100863.31;;;12.16;100.00
22550;BME280;11441;57.164;-2.120;2023-07-20T05:18:47;100869.06;;;12.26;100.00
22550;BME280;11441;57.164;-2.120;2023-07-20T05:21:14;100864.38;;;12.31;100.00
22550;BME280;11441;57.164;-2.120;2023-07-20T05:23:41;100863.22;;;12.12;100.00
22550;BME280;11441;57.164;-2.120;2023-07-20T05:26:08;100860.97;;;12.18;100.00
22550;BME280;11441;57.164;-2.120;2023-07-20T05:28:35;100860.00;;;12.10;100.00
22550;BME280;11441;57.164;-2.120;2023-07-20T05:31:03;100861.47;;;12.23;100.00
22550;BME280;11441;57.164;-2.120;2023-07-20T05:33:30;100868.91;;;12.19;100.00
22550;BME280;11441;57.164;-2.120;2023-07-20T05:35:56;100870.69;;;12.12;100.00
22550;BME280;11441;57.164;-2.120;2023-07-20T05:38:23;100869.91;;;12.31;100.00
22550;BME280;11441;57.164;-2.120;2023-07-20T05:40:50;100858.06;;;12.30;100.00
22550;BME280;11441;57.164;-2.120;2023-07-20T05:43:17;100852.41;;;12.42;100.00
22550;BME280;11441;57.164;-2.120;2023-07-20T05:46:03;100859.91;;;12.42;100.00
22550;BME280;11441;57.164;-2.120;2023-07-20T05:48:32;100859.31;;;12.52;100.00
22550;BME280;11441;57.164;-2.120;2023-07-20T05:50:59;100869.31;;;12.60;100.00
22550;BME280;11441;57.164;-2.120;2023-07-20T05:53:26;100874.06;;;12.60;100.00
22550;BME280;11441;57.164;-2.120;2023-07-20T05:55:53;100862.59;;;12.58;100.00
22550;BME280;11441;57.164;-2.120;2023-07-20T05:58:20;100867.59;;;12.72;100.00
22550;BME280;11441;57.164;-2.120;2023-07-20T06:00:49;100864.41;;;12.70;100.00
22550;BME280;11441;57.164;-2.120;2023-07-20T06:03:16;100864.97;;;12.59;100.00
22550;BME280;11441;57.164;-2.120;2023-07-20T06:05:48;100861.88;;;12.61;100.00
22550;BME280;11441;57.164;-2.120;2023-07-20T06:08:15;100864.22;;;12.62;100.00
22550;BME280;11441;57.164;-2.120;2023-07-20T06:10:41;100861.31;;;12.75;100.00
22550;BME280;11441;57.164;-2.120;2023-07-20T06:13:11;100852.69;;;12.57;100.00
22550;BME280;11441;57.164;-2.120;2023-07-20T06:15:38;100868.31;;;12.69;100.00
22550;BME280;11441;57.164;-2.120;2023-07-20T06:18:05;100859.16;;;12.64;100.00
22550;BME280;11441;57.164;-2.120;2023-07-20T06:20:32;100864.53;;;12.77;100.00
22550;BME280;11441;57.164;-2.120;2023-07-20T06:22:59;100871.31;;;12.60;100.00
22550;BME280;11441;57.164;-2.120;2023-07-20T06:25:45;100871.22;;;12.56;100.00
22550;BME280;11441;57.164;-2.120;2023-07-20T06:28:12;100875.34;;;12.86;100.00
22550;BME280;11441;57.164;-2.120;2023-07-20T06:30:39;100878.84;;;12.82;100.00
22550;BME280;11441;57.164;-2.120;2023-07-20T06:33:06;100873.63;;;13.00;100.00
22550;BME280;11441;57.164;-2.120;2023-07-20T06:35:34;100877.41;;;13.12;100.00
22550;BME280;11441;57.164;-2.120;2023-07-20T06:38:04;100865.28;;;13.20;100.00
22550;BME280;11441;57.164;-2.120;2023-07-20T06:40:34;100865.94;;;13.33;100.00
22550;BME280;11441;57.164;-2.120;2023-07-20T06:43:01;100857.91;;;13.51;100.00
22550;BME280;11441;57.164;-2.120;2023-07-20T06:45:30;100873.31;;;13.48;100.00
22550;BME280;11441;57.164;-2.120;2023-07-20T06:47:57;100873.78;;;13.54;100.00
22550;BME280;11441;57.164;-2.120;2023-07-20T06:50:43;100869.47;;;13.56;100.00
22550;BME280;11441;57.164;-2.120;2023-07-20T06:53:09;100869.38;;;13.76;100.00
22550;BME280;11441;57.164;-2.120;2023-07-20T06:55:36;100872.63;;;13.82;100.00
22550;BME280;11441;57.164;-2.120;2023-07-20T06:58:06;100877.91;;;13.90;100.00
22550;BME280;11441;57.164;-2.120;2023-07-20T07:00:33;100868.53;;;13.72;100.00
22550;BME280;11441;57.164;-2.120;2023-07-20T07:03:00;100872.22;;;13.56;100.00
22550;BME280;11441;57.164;-2.120;2023-07-20T07:05:27;100870.44;;;13.41;100.00
22550;BME280;11441;57.164;-2.120;2023-07-20T07:08:01;100874.09;;;13.49;100.00
22550;BME280;11441;57.164;-2.120;2023-07-20T07:10:28;100873.94;;;13.65;100.00
22550;BME280;11441;57.164;-2.120;2023-07-20T07:12:55;100878.47;;;13.76;100.00
22550;BME280;11441;57.164;-2.120;2023-07-20T07:15:22;100874.41;;;13.44;100.00
22550;BME280;11441;57.164;-2.120;2023-07-20T07:17:49;100875.41;;;13.55;100.00
22550;BME280;11441;57.164;-2.120;2023-07-20T07:20:16;100875.25;;;13.48;100.00
22550;BME280;11441;57.164;-2.120;2023-07-20T07:22:47;100878.78;;;13.71;100.00
22550;BME280;11441;57.164;-2.120;2023-07-20T07:25:19;100881.47;;;13.64;100.00
22550;BME280;11441;57.164;-2.120;2023-07-20T07:27:51;100877.50;;;13.65;100.00
22550;BME280;11441;57.164;-2.120;2023-07-20T07:30:19;100871.91;;;13.62;100.00
22550;BME280;11441;57.164;-2.120;2023-07-20T07:32:46;100874.00;;;13.68;100.00
22550;BME280;11441;57.164;-2.120;2023-07-20T07:35:13;100872.28;;;13.60;100.00
22550;BME280;11441;57.164;-2.120;2023-07-20T07:37:40;100879.66;;;14.02;100.00
22550;BME280;11441;57.164;-2.120;2023-07-20T07:40:10;100879.91;;;13.93;100.00
22550;BME280;11441;57.164;-2.120;2023-07-20T07:42:37;100881.22;;;14.03;100.00
22550;BME280;11441;57.164;-2.120;2023-07-20T07:45:05;100873.47;;;13.86;100.00
22550;BME280;11441;57.164;-2.120;2023-07-20T07:47:32;100877.38;;;13.81;100.00
22550;BME280;11441;57.164;-2.120;2023-07-20T07:49:59;100877.34;;;14.08;100.00
22550;BME280;11441;57.164;-2.120;2023-07-20T07:52:26;100880.03;;;14.01;100.00
22550;BME280;11441;57.164;-2.120;2023-07-20T07:54:53;100883.75;;;13.85;100.00
22550;BME280;11441;57.164;-2.120;2023-07-20T07:57:20;100880.84;;;14.05;100.00
22550;BME280;11441;57.164;-2.120;2023-07-20T07:59:46;100875.84;;;14.14;100.00
22550;BME280;11441;57.164;-2.120;2023-07-20T08:02:13;100882.91;;;14.42;100.00
22550;BME280;11441;57.164;-2.120;2023-07-20T08:04:40;100874.66;;;14.45;100.00
22550;BME280;11441;57.164;-2.120;2023-07-20T08:07:07;100877.16;;;14.24;100.00
22550;BME280;11441;57.164;-2.120;2023-07-20T08:09:34;100872.44;;;14.28;100.00
22550;BME280;11441;57.164;-2.120;2023-07-20T08:12:01;100879.50;;;14.22;100.00
22550;BME280;11441;57.164;-2.120;2023-07-20T08:14:28;100869.38;;;14.03;100.00
22550;BME280;11441;57.164;-2.120;2023-07-20T08:16:55;100867.53;;;14.14;100.00
22550;BME280;11441;57.164;-2.120;2023-07-20T08:19:22;100873.28;;;14.28;100.00
22550;BME280;11441;57.164;-2.120;2023-07-20T08:21:50;100871.38;;;14.36;100.00
22550;BME280;11441;57.164;-2.120;2023-07-20T08:24:17;100871.13;;;14.48;100.00
22550;BME280;11441;57.164;-2.120;2023-07-20T08:26:44;100874.34;;;14.54;100.00
22550;BME280;11441;57.164;-2.120;2023-07-20T08:29:11;100871.13;;;14.48;100.00
22550;BME280;11441;57.164;-2.120;2023-07-20T08:31:37;100864.19;;;14.62;100.00
22550;BME280;11441;57.164;-2.120;2023-07-20T08:34:04;100869.78;;;14.65;100.00
22550;BME280;11441;57.164;-2.120;2023-07-20T08:36:46;100868.88;;;14.92;100.00
22550;BME280;11441;57.164;-2.120;2023-07-20T08:39:12;100874.06;;;14.29;100.00
22550;BME280;11441;57.164;-2.120;2023-07-20T08:41:41;100878.78;;;14.25;100.00
22550;BME280;11441;57.164;-2.120;2023-07-20T08:44:10;100882.22;;;14.48;100.00
22550;BME280;11441;57.164;-2.120;2023-07-20T08:46:38;100865.97;;;14.47;100.00
22550;BME280;11441;57.164;-2.120;2023-07-20T08:49:06;100884.25;;;14.51;100.00
22550;BME280;11441;57.164;-2.120;2023-07-20T08:51:33;100874.59;;;14.42;100.00
22550;BME280;11441;57.164;-2.120;2023-07-20T08:54:02;100866.13;;;14.27;100.00
22550;BME280;11441;57.164;-2.120;2023-07-20T08:56:31;100871.44;;;14.09;100.00
22550;BME280;11441;57.164;-2.120;2023-07-20T08:58:58;100878.94;;;14.09;100.00
22550;BME280;11441;57.164;-2.120;2023-07-20T09:01:27;100876.66;;;14.14;100.00
22550;BME280;11441;57.164;-2.120;2023-07-20T09:03:55;100881.88;;;14.20;100.00
22550;BME280;11441;57.164;-2.120;2023-07-20T09:06:23;100873.56;;;13.93;100.00
22550;BME280;11441;57.164;-2.120;2023-07-20T09:08:52;100881.81;;;14.16;100.00
22550;BME280;11441;57.164;-2.120;2023-07-20T09:11:19;100871.84;;;14.11;100.00
22550;BME280;11441;57.164;-2.120;2023-07-20T09:13:46;100867.72;;;14.28;100.00
22550;BME280;11441;57.164;-2.120;2023-07-20T09:16:15;100868.53;;;14.29;100.00
22550;BME280;11441;57.164;-2.120;2023-07-20T09:18:43;100876.84;;;14.29;100.00
22550;BME280;11441;57.164;-2.120;2023-07-20T09:21:10;100876.22;;;14.12;100.00
22550;BME280;11441;57.164;-2.120;2023-07-20T09:23:38;100873.63;;;13.96;100.00
22550;BME280;11441;57.164;-2.120;2023-07-20T09:26:11;100876.28;;;14.16;100.00
22550;BME280;11441;57.164;-2.120;2023-07-20T09:28:50;100870.81;;;13.93;100.00
22550;BME280;11441;57.164;-2.120;2023-07-20T09:31:21;100882.50;;;14.09;100.00
22550;BME280;11441;57.164;-2.120;2023-07-20T09:33:50;100877.22;;;13.97;100.00
22550;BME280;11441;57.164;-2.120;2023-07-20T09:36:21;100872.00;;;13.92;100.00
22550;BME280;11441;57.164;-2.120;2023-07-20T09:39:08;100855.75;;;13.90;100.00
22550;BME280;11441;57.164;-2.120;2023-07-20T09:41:41;100851.78;;;14.18;100.00
22550;BME280;11441;57.164;-2.120;2023-07-20T09:44:15;100864.25;;;14.35;100.00
22550;BME280;11441;57.164;-2.120;2023-07-20T09:46:49;100862.81;;;14.14;100.00
22550;BME280;11441;57.164;-2.120;2023-07-20T09:49:20;100869.88;;;14.42;100.00
22550;BME280;11441;57.164;-2.120;2023-07-20T09:51:50;100876.91;;;14.36;100.00
22550;BME280;11441;57.164;-2.120;2023-07-20T09:54:21;100874.31;;;14.50;100.00
22550;BME280;11441;57.164;-2.120;2023-07-20T09:56:48;100872.78;;;14.53;100.00
22550;BME280;11441;57.164;-2.120;2023-07-20T09:59:17;100864.63;;;14.64;100.00
22550;BME280;11441;57.164;-2.120;2023-07-20T10:01:45;100863.50;;;14.68;100.00
22550;BME280;11441;57.164;-2.120;2023-07-20T10:04:14;100862.47;;;14.84;100.00
22550;BME280;11441;57.164;-2.120;2023-07-20T10:06:46;100862.31;;;15.11;100.00
22550;BME280;11441;57.164;-2.120;2023-07-20T10:09:36;100859.28;;;15.26;100.00
22550;BME280;11441;57.164;-2.120;2023-07-20T10:12:08;100853.03;;;15.37;100.00
22550;BME280;11441;57.164;-2.120;2023-07-20T10:14:51;100861.09;;;15.53;100.00
22550;BME280;11441;57.164;-2.120;2023-07-20T10:17:21;100850.41;;;15.58;100.00
22550;BME280;11441;57.164;-2.120;2023-07-20T10:19:50;100850.09;;;15.71;100.00
22550;BME280;11441;57.164;-2.120;2023-07-20T10:22:25;100862.50;;;15.32;100.00
22550;BME280;11441;57.164;-2.120;2023-07-20T10:25:11;100857.78;;;15.36;100.00
22550;BME280;11441;57.164;-2.120;2023-07-20T10:27:38;100854.03;;;15.62;100.00
22550;BME280;11441;57.164;-2.120;2023-07-20T10:30:06;100855.06;;;15.43;100.00
22550;BME280;11441;57.164;-2.120;2023-07-20T10:32:33;100858.69;;;15.51;100.00
22550;BME280;11441;57.164;-2.120;2023-07-20T10:35:00;100863.13;;;15.11;100.00
22550;BME280;11441;57.164;-2.120;2023-07-20T10:37:46;100870.44;;;15.34;100.00
22550;BME280;11441;57.164;-2.120;2023-07-20T10:40:33;100864.00;;;14.81;100.00
22550;BME280;11441;57.164;-2.120;2023-07-20T10:43:05;100879.34;;;14.71;100.00
22550;BME280;11441;57.164;-2.120;2023-07-20T10:45:52;100866.34;;;14.45;100.00
22550;BME280;11441;57.164;-2.120;2023-07-20T10:49:04;100866.38;;;14.49;100.00
22550;BME280;11441;57.164;-2.120;2023-07-20T10:51:48;100862.75;;;14.41;100.00
22550;BME280;11441;57.164;-2.120;2023-07-20T10:56:43;100863.84;;;14.37;100.00
22550;BME280;11441;57.164;-2.120;2023-07-20T11:01:50;100858.88;;;14.83;100.00
22550;BME280;11441;57.164;-2.120;2023-07-20T11:04:41;100860.00;;;14.75;100.00
22550;BME280;11441;57.164;-2.120;2023-07-20T11:07:08;100870.03;;;14.90;100.00
22550;BME280;11441;57.164;-2.120;2023-07-20T11:09:37;100855.28;;;14.79;100.00
22550;BME280;11441;57.164;-2.120;2023-07-20T11:24:25;100864.97;;;14.96;100.00
22550;BME280;11441;57.164;-2.120;2023-07-20T11:26:55;100855.34;;;14.86;100.00
22550;BME280;11441;57.164;-2.120;2023-07-20T11:38:54;100866.94;;;14.99;100.00
22550;BME280;11441;57.164;-2.120;2023-07-20T11:42:01;100862.63;;;15.02;100.00
22550;BME280;11441;57.164;-2.120;2023-07-20T11:49:40;100857.84;;;14.99;100.00
22550;BME280;11441;57.164;-2.120;2023-07-20T12:10:12;100856.03;;;14.12;100.00
22550;BME280;11441;57.164;-2.120;2023-07-20T12:12:41;100862.25;;;14.32;100.00
22550;BME280;11441;57.164;-2.120;2023-07-20T12:15:27;100866.66;;;14.40;100.00
22550;BME280;11441;57.164;-2.120;2023-07-20T12:17:57;100857.03;;;14.61;100.00
22550;BME280;11441;57.164;-2.120;2023-07-20T12:20:35;100860.84;;;14.49;100.00
22550;BME280;11441;57.164;-2.120;2023-07-20T12:23:11;100848.44;;;14.69;100.00
22550;BME280;11441;57.164;-2.120;2023-07-20T12:28:13;100844.47;;;14.67;100.00
22550;BME280;11441;57.164;-2.120;2023-07-20T12:30:43;100843.47;;;14.52;100.00
22550;BME280;11441;57.164;-2.120;2023-07-20T12:33:11;100846.56;;;14.77;100.00
22550;BME280;11441;57.164;-2.120;2023-07-20T12:35:43;100837.84;;;14.79;100.00
22550;BME280;11441;57.164;-2.120;2023-07-20T12:38:10;100830.78;;;14.85;100.00
22550;BME280;11441;57.164;-2.120;2023-07-20T12:40:37;100830.41;;;14.86;100.00
22550;BME280;11441;57.164;-2.120;2023-07-20T12:43:03;100829.44;;;14.71;100.00
22550;BME280;11441;57.164;-2.120;2023-07-20T12:45:31;100829.91;;;14.77;100.00
22550;BME280;11441;57.164;-2.120;2023-07-20T12:47:58;100818.28;;;15.05;100.00
22550;BME280;11441;57.164;-2.120;2023-07-20T12:50:26;100815.22;;;15.18;100.00
22550;BME280;11441;57.164;-2.120;2023-07-20T12:52:53;100810.75;;;15.06;100.00
22550;BME280;11441;57.164;-2.120;2023-07-20T12:55:20;100817.88;;;15.03;100.00
22550;BME280;11441;57.164;-2.120;2023-07-20T12:57:47;100814.53;;;15.32;100.00
22550;BME280;11441;57.164;-2.120;2023-07-20T13:00:14;100808.94;;;15.24;100.00
22550;BME280;11441;57.164;-2.120;2023-07-20T13:02:41;100804.25;;;15.36;100.00
22550;BME280;11441;57.164;-2.120;2023-07-20T13:05:10;100819.94;;;15.69;100.00
22550;BME280;11441;57.164;-2.120;2023-07-20T13:07:38;100824.72;;;15.69;100.00
22550;BME280;11441;57.164;-2.120;2023-07-20T13:10:10;100805.63;;;15.60;100.00
22550;BME280;11441;57.164;-2.120;2023-07-20T13:12:37;100815.56;;;15.64;100.00
22550;BME280;11441;57.164;-2.120;2023-07-20T13:15:06;100825.97;;;15.75;100.00
22550;BME280;11441;57.164;-2.120;2023-07-20T13:17:38;100813.47;;;15.47;100.00
22550;BME280;11441;57.164;-2.120;2023-07-20T13:20:24;100813.41;;;15.36;100.00
22550;BME280;11441;57.164;-2.120;2023-07-20T13:22:52;100814.44;;;15.17;100.00
22550;BME280;11441;57.164;-2.120;2023-07-20T13:25:18;100817.78;;;14.93;100.00
22550;BME280;11441;57.164;-2.120;2023-07-20T13:27:47;100813.84;;;14.97;100.00
22550;BME280;11441;57.164;-2.120;2023-07-20T13:33:20;100804.09;;;15.14;100.00
22550;BME280;11441;57.164;-2.120;2023-07-20T13:35:47;100806.13;;;15.21;100.00
22550;BME280;11441;57.164;-2.120;2023-07-20T13:38:15;100814.63;;;14.98;100.00
22550;BME280;11441;57.164;-2.120;2023-07-20T13:40:43;100799.69;;;15.09;100.00
22550;BME280;11441;57.164;-2.120;2023-07-20T13:43:10;100802.78;;;15.01;100.00
22550;BME280;11441;57.164;-2.120;2023-07-20T13:45:38;100803.75;;;14.75;100.00
22550;BME280;11441;57.164;-2.120;2023-07-20T13:48:06;100804.47;;;14.68;100.00